Time,TemperatureF,DewpointF,PressureIn,WindDirection,WindDirectionDegrees,WindSpeedMPH,WindSpeedGustMPH,Humidity,HourlyPrecipIn,Conditions,Clouds,dailyrainin,SoftwareType,DateUTC
2013-09-06 00:11:00,52.0,48.0,30.23,SSW,196,0.0,0.0,86,0.00,,,0.24,,2013-09-06 07:11:00,
2013-09-06 00:23:00,52.0,48.0,30.24,SSW,196,0.0,0.0,87,0.00,,,0.24,,2013-09-06 07:23:00,
2013-09-06 00:52:00,52.0,48.0,30.24,SSW,196,0.0,0.0,87,0.00,,,0.24,,2013-09-06 07:52:00,
2013-09-06 01:12:00,52.0,49.0,30.23,SSW,196,1.0,2.0,88,0.00,,,0.24,,2013-09-06 08:12:00,
2013-09-06 01:22:00,52.0,49.0,30.23,SSW,196,0.0,0.0,88,0.00,,,0.24,,2013-09-06 08:22:00,
2013-09-06 01:42:00,52.0,48.0,30.22,SSW,196,0.0,1.0,87,0.00,,,0.24,,2013-09-06 08:42:00,
2013-09-06 01:52:00,52.0,48.0,30.23,SSW,196,0.0,0.0,87,0.00,,,0.24,,2013-09-06 08:52:00,
2013-09-06 02:11:00,52.0,48.0,30.23,SSW,196,0.0,0.0,87,0.00,,,0.24,,2013-09-06 09:11:00,
2013-09-06 02:22:00,53.0,49.0,30.22,SSW,196,0.0,0.0,86,0.00,,,0.24,,2013-09-06 09:22:00,
2013-09-06 02:53:00,53.0,49.0,30.22,SSW,196,0.0,0.0,85,0.00,,,0.24,,2013-09-06 09:53:00,
2013-09-06 03:12:00,52.0,48.0,30.22,SSW,196,0.0,0.0,85,0.00,,,0.24,,2013-09-06 10:12:00,
2013-09-06 03:23:00,52.0,47.0,30.22,SSW,196,0.0,1.0,82,0.00,,,0.24,,2013-09-06 10:23:00,
2013-09-06 03:42:00,52.0,47.0,30.22,SSW,196,0.0,0.0,82,0.00,,,0.24,,2013-09-06 10:42:00,
2013-09-06 03:53:00,52.0,47.0,30.22,SSW,196,0.0,0.0,83,0.00,,,0.24,,2013-09-06 10:53:00,
2013-09-06 04:11:00,52.0,47.0,30.21,SSW,196,0.0,1.0,84,0.00,,,0.24,,2013-09-06 11:11:00,
2013-09-06 04:22:00,52.0,47.0,30.21,SSW,196,0.0,0.0,84,0.00,,,0.24,,2013-09-06 11:22:00,
2013-09-06 04:52:00,52.0,48.0,30.21,SSW,196,0.0,0.0,85,0.00,,,0.24,,2013-09-06 11:52:00,
2013-09-06 05:12:00,52.0,48.0,30.21,SSW,196,0.0,0.0,86,0.00,,,0.24,,2013-09-06 12:12:00,
2013-09-06 05:21:00,52.0,48.0,30.21,SSW,196,0.0,0.0,86,0.00,,,0.24,,2013-09-06 12:21:00,
2013-09-06 05:42:00,53.0,49.0,30.22,SSW,196,0.0,0.0,87,0.00,,,0.24,,2013-09-06 12:42:00,
2013-09-06 05:52:00,52.0,48.0,30.22,SSW,196,0.0,0.0,87,0.00,,,0.24,,2013-09-06 12:52:00,
2013-09-06 06:11:00,53.0,49.0,30.22,SSW,196,0.0,0.0,87,0.00,,,0.24,,2013-09-06 13:11:00,
2013-09-06 06:22:00,52.0,49.0,30.22,SSW,196,0.0,0.0,88,0.00,,,0.24,,2013-09-06 13:22:00,
2013-09-06 06:52:00,51.0,48.0,30.22,SSW,196,0.0,0.0,88,0.00,,,0.24,,2013-09-06 13:52:00,
2013-09-06 07:11:00,51.0,48.0,30.22,SSW,196,0.0,0.0,88,0.00,,,0.24,,2013-09-06 14:11:00,
2013-09-06 07:22:00,51.0,48.0,30.22,SSW,196,0.0,0.0,88,0.00,,,0.24,,2013-09-06 14:22:00,
2013-09-06 07:52:00,52.0,48.0,30.23,SSW,196,0.0,0.0,87,0.00,,,0.24,,2013-09-06 14:52:00,
2013-09-06 08:22:00,57.0,51.0,30.23,SSW,196,0.0,2.0,81,0.00,,,0.24,,2013-09-06 15:22:00,
2013-09-06 08:53:00,61.0,52.0,30.23,SSW,196,0.0,0.0,73,0.00,,,0.24,,2013-09-06 15:53:00,
2013-09-06 09:13:00,66.0,52.0,30.23,East,92,0.0,1.0,61,0.00,,,0.24,,2013-09-06 16:13:00,
2013-09-06 09:24:00,67.0,53.0,30.23,East,92,0.0,0.0,60,0.00,,,0.24,,2013-09-06 16:24:00,
2013-09-06 09:53:00,73.0,48.0,30.24,SSE,154,0.0,0.0,41,0.00,,,0.24,,2013-09-06 16:53:00,
2013-09-06 10:24:00,76.0,46.0,30.24,NW,304,0.0,4.0,34,0.00,,,0.24,,2013-09-06 17:24:00,
2013-09-06 10:53:00,77.0,44.0,30.24,SSW,205,1.0,4.0,31,0.00,,,0.24,,2013-09-06 17:53:00,
2013-09-06 11:12:00,79.0,43.0,30.24,West,264,0.0,5.0,28,0.00,,,0.24,,2013-09-06 18:12:00,
2013-09-06 11:22:00,78.0,43.0,30.24,SW,232,0.0,6.0,29,0.00,,,0.24,,2013-09-06 18:22:00,
2013-09-06 11:42:00,79.0,44.0,30.24,SW,219,1.0,6.0,29,0.00,,,0.24,,2013-09-06 18:42:00,
2013-09-06 11:52:00,78.0,42.0,30.24,SSW,192,1.0,6.0,28,0.00,,,0.24,,2013-09-06 18:52:00,
2013-09-06 12:11:00,79.0,47.0,30.24,SW,216,1.0,7.0,33,0.00,,,0.24,,2013-09-06 19:11:00,
2013-09-06 12:21:00,80.0,48.0,30.23,WSW,239,1.0,7.0,33,0.00,,,0.24,,2013-09-06 19:21:00,
2013-09-06 12:42:00,79.0,47.0,30.23,SSW,193,2.0,6.0,33,0.00,,,0.24,,2013-09-06 19:42:00,
2013-09-06 12:52:00,78.0,45.0,30.22,South,189,1.0,7.0,31,0.00,,,0.24,,2013-09-06 19:52:00,
2013-09-06 14:54:00,74.0,51.0,30.21,NE,35,0.0,0.0,45,0.00,,,0.18,,2013-09-06 21:54:00,
2013-09-06 15:13:00,74.0,49.0,30.20,North,11,0.0,6.0,42,0.00,,,0.09,,2013-09-06 22:13:00,
2013-09-06 15:23:00,74.0,49.0,30.19,NNE,27,0.0,0.0,42,0.00,,,0.09,,2013-09-06 22:23:00,
2013-09-06 15:53:00,74.0,43.0,30.19,SW,230,2.0,7.0,33,0.00,,,0.09,,2013-09-06 22:53:00,
2013-09-06 16:12:00,75.0,44.0,30.19,SSW,206,3.0,12.0,33,0.00,,,0.01,,2013-09-06 23:12:00,
2013-09-06 16:23:00,74.0,45.0,30.19,SW,226,4.0,12.0,35,0.00,,,0.01,,2013-09-06 23:23:00,
2013-09-06 16:52:00,74.0,45.0,30.19,SSW,210,0.0,9.0,35,0.00,,,0.00,,2013-09-06 23:52:00,
2013-09-06 17:12:00,73.0,44.0,30.19,South,184,2.0,10.0,36,0.00,,,0.00,,2013-09-07 00:12:00,
2013-09-06 17:22:00,72.0,44.0,30.19,SW,227,1.0,6.0,37,0.00,,,0.00,,2013-09-07 00:22:00,
2013-09-06 17:42:00,72.0,45.0,30.19,WSW,246,0.0,0.0,38,0.00,,,0.00,,2013-09-07 00:42:00,
2013-09-06 17:52:00,72.0,45.0,30.19,South,188,0.0,0.0,38,0.00,,,0.00,,2013-09-07 00:52:00,
2013-09-06 18:12:00,72.0,46.0,30.18,WNW,287,1.0,0.0,39,0.00,,,0.00,,2013-09-07 01:12:00,
2013-09-06 18:21:00,72.0,46.0,30.18,South,189,0.0,1.0,39,0.00,,,0.00,,2013-09-07 01:21:00,
2013-09-06 18:53:00,71.0,46.0,30.18,South,174,0.0,2.0,41,0.00,,,0.00,,2013-09-07 01:53:00,
2013-09-06 19:12:00,70.0,45.0,30.18,SW,227,0.0,1.0,41,0.00,,,0.00,,2013-09-07 02:12:00,
2013-09-06 19:23:00,70.0,46.0,30.18,South,184,2.0,6.0,42,0.00,,,0.00,,2013-09-07 02:23:00,
2013-09-06 19:42:00,69.0,45.0,30.19,SW,222,0.0,0.0,42,0.00,,,0.00,,2013-09-07 02:42:00,
2013-09-06 19:52:00,68.0,46.0,30.18,SSW,206,0.0,0.0,46,0.00,,,0.00,,2013-09-07 02:52:00,
2013-09-06 20:11:00,67.0,47.0,30.18,SSW,206,0.0,0.0,48,0.00,,,0.00,,2013-09-07 03:11:00,
2013-09-06 20:22:00,66.0,46.0,30.18,SSW,206,0.0,0.0,48,0.00,,,0.00,,2013-09-07 03:22:00,
2013-09-06 20:54:00,65.0,46.0,30.19,West,260,0.0,0.0,50,0.00,,,0.00,,2013-09-07 03:54:00,
2013-09-06 21:23:00,63.0,48.0,30.19,West,260,0.0,0.0,57,0.00,,,0.00,,2013-09-07 04:23:00,
2013-09-06 21:54:00,61.0,48.0,30.20,West,260,0.0,0.0,62,0.00,,,0.00,,2013-09-07 04:54:00,
2013-09-06 22:12:00,60.0,47.0,30.20,West,260,0.0,0.0,62,0.00,,,0.00,,2013-09-07 05:12:00,
2013-09-06 22:23:00,59.0,47.0,30.21,West,260,0.0,0.0,65,0.00,,,0.00,,2013-09-07 05:23:00,
2013-09-06 22:52:00,59.0,48.0,30.21,West,260,0.0,0.0,67,0.00,,,0.00,,2013-09-07 05:52:00,
2013-09-06 23:13:00,58.0,48.0,30.21,West,260,0.0,0.0,69,0.00,,,0.00,,2013-09-07 06:13:00,
2013-09-06 23:21:00,58.0,48.0,30.21,West,260,0.0,0.0,70,0.00,,,0.00,,2013-09-07 06:21:00,
2013-09-06 23:52:00,57.0,48.0,30.22,West,260,0.0,0.0,71,0.00,,,0.00,,2013-09-07 06:52:00,